createdAt,value
2022-09-30T00:00:01.118Z,46.33
2022-09-30T00:05:05.538Z,38.27
2022-09-30T00:10:09.967Z,27.67
2022-09-30T00:15:13.766Z,28.37
2022-09-30T00:20:18.344Z,30.10
2022-09-30T00:25:21.848Z,32.80
2022-09-30T00:30:25.145Z,28.53
2022-09-30T00:35:28.306Z,27.77
2022-09-30T00:40:32.035Z,27.77
2022-09-30T00:45:35.568Z,27.90
2022-09-30T00:50:47.534Z,24.40
2022-09-30T00:56:03.347Z,26.20
2022-09-30T01:01:07.005Z,29.53
2022-09-30T01:06:10.847Z,34.40
2022-09-30T01:11:15.435Z,28.70
2022-09-30T01:16:39.124Z,33.63
2022-09-30T01:22:16.314Z,30.83
2022-09-30T01:27:43.246Z,27.43
2022-09-30T01:33:23.856Z,34.80
2022-09-30T01:38:31.423Z,30.03
2022-09-30T01:44:14.485Z,31.20
2022-09-30T01:49:35.626Z,32.87
2022-09-30T01:54:42.086Z,38.70
2022-09-30T01:59:55.216Z,36.07
2022-09-30T02:05:11.206Z,41.13
2022-09-30T02:10:29.137Z,41.73
2022-09-30T02:15:40.622Z,37.87
2022-09-30T02:20:45.387Z,38.00
2022-09-30T02:25:59.985Z,45.13
2022-09-30T02:31:05.052Z,44.00
2022-09-30T02:36:18.447Z,42.77
2022-09-30T02:41:27.065Z,43.27
2022-09-30T02:46:56.690Z,36.00
2022-09-30T02:52:27.607Z,44.13
2022-09-30T02:57:40.449Z,41.33
2022-09-30T03:02:43.663Z,47.03
2022-09-30T03:07:47.014Z,42.70
2022-09-30T03:12:59.445Z,46.23
2022-09-30T03:18:23.258Z,41.87
2022-09-30T03:23:38.518Z,40.00
2022-09-30T03:29:07.283Z,42.50
2022-09-30T03:34:13.977Z,48.57
2022-09-30T03:39:27.435Z,43.83
2022-09-30T03:44:54.306Z,39.57
2022-09-30T03:50:01.707Z,37.57
2022-09-30T03:55:08.613Z,36.60
2022-09-30T04:00:13.756Z,35.87
2022-09-30T04:05:17.334Z,38.53
2022-09-30T04:10:20.576Z,34.63
2022-09-30T04:15:23.955Z,38.47
2022-09-30T04:20:27.386Z,33.17
2022-09-30T04:25:31.005Z,37.83
2022-09-30T04:30:34.054Z,34.07
2022-09-30T04:35:38.161Z,39.73
2022-09-30T04:40:41.501Z,35.87
2022-09-30T04:45:48.030Z,37.30
2022-09-30T04:50:52.126Z,31.57
2022-09-30T04:56:02.148Z,42.53
2022-09-30T05:01:09.925Z,35.37
2022-09-30T05:06:14.009Z,31.60
2022-09-30T05:11:19.678Z,38.00
2022-09-30T05:16:23.390Z,32.87
2022-09-30T05:21:26.436Z,38.67
2022-09-30T05:26:29.503Z,39.03
2022-09-30T05:31:32.889Z,36.80
2022-09-30T05:36:36.776Z,35.70
2022-09-30T05:41:39.976Z,38.70
2022-09-30T05:46:44.481Z,41.17
2022-09-30T05:51:48.925Z,45.67
2022-09-30T05:56:52.694Z,32.07
2022-09-30T06:01:56.401Z,34.43
2022-09-30T06:06:59.513Z,37.83
2022-09-30T06:12:03.729Z,39.77
2022-09-30T06:17:07.162Z,39.50
2022-09-30T06:22:10.837Z,36.30
2022-09-30T06:27:14.265Z,47.03
2022-09-30T06:32:17.921Z,41.80
2022-09-30T06:37:21.185Z,45.40
2022-09-30T06:42:25.726Z,41.10
2022-09-30T06:47:29.019Z,42.83
2022-09-30T06:52:32.325Z,41.77
2022-09-30T06:57:36.697Z,59.93
2022-09-30T07:02:40.581Z,60.63
2022-09-30T07:07:44.292Z,63.80
2022-09-30T07:12:54.816Z,48.17
2022-09-30T07:17:58.274Z,47.00
2022-09-30T07:23:02.285Z,53.37
2022-09-30T07:28:05.386Z,42.03
2022-09-30T07:33:08.756Z,41.97
2022-09-30T07:38:11.851Z,44.67
2022-09-30T07:43:19.481Z,45.93
2022-09-30T07:48:41.165Z,46.53
2022-09-30T07:53:46.585Z,44.70
2022-09-30T07:58:50.296Z,46.80
2022-09-30T08:03:59.456Z,54.27
2022-09-30T08:09:02.638Z,55.93
2022-09-30T08:14:06.190Z,48.17
2022-09-30T08:19:16.819Z,48.30
2022-09-30T08:24:20.575Z,48.43
2022-09-30T08:34:47.775Z,56.50
2022-09-30T08:39:51.416Z,53.47
2022-09-30T08:45:01.524Z,57.47
2022-09-30T08:50:15.659Z,52.47
2022-09-30T08:55:28.260Z,58.03
2022-09-30T09:00:33.717Z,53.70
2022-09-30T09:05:52.336Z,52.67
2022-09-30T09:11:11.083Z,65.63
2022-09-30T09:16:35.600Z,49.47
2022-09-30T09:21:57.487Z,48.67
2022-09-30T09:27:02.140Z,43.70
2022-09-30T09:32:17.801Z,42.53
2022-09-30T09:37:56.065Z,43.13
2022-09-30T09:43:44.295Z,36.20
2022-09-30T09:48:47.498Z,33.43
2022-09-30T09:53:52.879Z,33.60
2022-09-30T09:59:19.739Z,33.00
2022-09-30T10:04:30.674Z,27.27
2022-09-30T10:09:39.978Z,30.73
2022-09-30T10:14:55.066Z,25.60
2022-09-30T10:20:15.587Z,25.07
2022-09-30T10:25:23.318Z,21.13
2022-09-30T10:30:45.486Z,18.47
2022-09-30T10:35:57.965Z,19.87
2022-09-30T10:41:02.778Z,16.67
2022-09-30T10:46:25.278Z,17.90
2022-09-30T10:51:34.750Z,20.23
2022-09-30T10:56:46.978Z,18.50
2022-09-30T11:01:57.543Z,16.93
2022-09-30T11:07:20.737Z,15.57
2022-09-30T11:12:44.908Z,17.20
2022-09-30T11:17:58.641Z,16.50
2022-09-30T11:23:19.707Z,17.10
2022-09-30T11:28:48.057Z,18.37
2022-09-30T11:34:09.310Z,15.53
2022-09-30T11:39:12.108Z,17.70
2022-09-30T11:44:25.807Z,18.70
2022-09-30T11:49:34.907Z,20.93
2022-09-30T11:54:59.816Z,14.30
2022-09-30T12:00:13.285Z,14.23
2022-09-30T12:05:27.212Z,15.37
2022-09-30T12:10:39.178Z,14.63
2022-09-30T12:15:45.287Z,18.20
2022-09-30T12:21:12.360Z,17.10
2022-09-30T12:26:17.061Z,13.10
2022-09-30T12:31:58.677Z,13.57
2022-09-30T12:37:27.145Z,13.43
2022-09-30T12:42:58.978Z,11.47
2022-09-30T12:48:09.790Z,11.90
2022-09-30T12:53:22.569Z,11.77
2022-09-30T12:58:35.315Z,10.00
2022-09-30T13:04:18.225Z,12.33
2022-09-30T13:09:30.173Z,12.00
2022-09-30T13:14:44.023Z,12.23
2022-09-30T13:19:52.912Z,9.90
2022-09-30T13:25:01.195Z,11.63
2022-09-30T13:30:17.460Z,11.77
2022-09-30T13:35:34.460Z,12.10
2022-09-30T13:41:07.475Z,13.93
2022-09-30T13:46:16.874Z,13.47
2022-09-30T13:51:23.216Z,13.83
2022-09-30T13:56:30.905Z,11.43
2022-09-30T14:01:37.966Z,8.50
2022-09-30T14:06:55.900Z,9.30
2022-09-30T14:12:04.068Z,8.83
2022-09-30T14:17:13.328Z,10.03
2022-09-30T14:22:17.444Z,8.13
2022-09-30T14:27:58.776Z,11.63
2022-09-30T14:33:21.381Z,10.63
2022-09-30T14:38:28.797Z,8.93
2022-09-30T14:43:39.001Z,10.40
2022-09-30T14:48:46.211Z,14.17
2022-09-30T14:53:58.783Z,14.20
2022-09-30T14:59:27.584Z,13.53
2022-09-30T15:04:35.531Z,9.50
2022-09-30T15:09:42.870Z,8.13
2022-09-30T15:14:55.358Z,9.57
2022-09-30T15:19:59.471Z,10.70
2022-09-30T15:25:03.675Z,11.57
2022-09-30T15:30:16.355Z,16.27
2022-09-30T15:35:24.058Z,10.87
2022-09-30T15:40:46.416Z,10.97
2022-09-30T15:45:51.689Z,12.50
2022-09-30T15:50:57.383Z,14.03
2022-09-30T15:56:18.856Z,14.30
2022-09-30T16:01:27.881Z,15.63
2022-09-30T16:06:35.817Z,15.27
2022-09-30T16:11:42.866Z,21.83
2022-09-30T16:16:57.051Z,28.33
2022-09-30T16:22:00.750Z,38.50
2022-09-30T16:27:28.002Z,32.70
2022-09-30T16:32:37.316Z,45.27
2022-09-30T16:37:43.405Z,21.03
2022-09-30T16:42:47.066Z,14.70
2022-09-30T16:47:51.088Z,15.77
2022-09-30T16:52:54.606Z,16.80
2022-09-30T16:57:58.967Z,15.77
2022-09-30T17:03:02.345Z,21.80
2022-09-30T17:08:10.029Z,16.13
2022-09-30T17:13:17.697Z,20.37
2022-09-30T17:18:22.085Z,25.57
2022-09-30T17:23:27.369Z,30.03
2022-09-30T17:28:34.905Z,33.77
2022-09-30T17:33:40.426Z,21.63
2022-09-30T17:38:43.649Z,17.43
2022-09-30T17:43:47.786Z,21.97
2022-09-30T17:48:56.398Z,24.73
2022-09-30T17:53:59.637Z,25.03
2022-09-30T17:59:04.486Z,23.17
2022-09-30T18:04:07.695Z,30.50
2022-09-30T18:09:12.197Z,31.17
2022-09-30T18:14:16.445Z,30.60
2022-09-30T18:19:20.276Z,31.77
2022-09-30T18:24:44.175Z,38.60
2022-09-30T18:29:48.186Z,35.07
2022-09-30T18:34:52.746Z,30.83
2022-09-30T18:39:56.953Z,45.87
2022-09-30T18:45:00.136Z,47.93
2022-09-30T18:50:03.742Z,56.80
2022-09-30T18:55:09.790Z,42.20
2022-09-30T19:00:13.135Z,44.33
2022-09-30T19:05:19.475Z,45.50
2022-09-30T19:10:25.016Z,48.27
2022-09-30T19:15:28.887Z,40.80
2022-09-30T19:20:39.139Z,38.30
2022-09-30T19:25:43.425Z,43.20
2022-09-30T19:30:48.546Z,41.53
2022-09-30T19:35:54.505Z,35.63
2022-09-30T19:41:01.539Z,33.83
2022-09-30T19:46:07.964Z,33.80
2022-09-30T19:51:12.879Z,41.00
2022-09-30T19:56:22.403Z,44.80
2022-09-30T20:01:30.797Z,32.43
2022-09-30T20:06:39.144Z,32.40
2022-09-30T20:11:43.024Z,35.53
2022-09-30T20:16:49.844Z,53.70
2022-09-30T20:21:55.325Z,53.43
2022-09-30T20:26:59.439Z,44.70
2022-09-30T20:32:02.949Z,41.27
2022-09-30T20:37:06.507Z,33.87
2022-09-30T20:42:10.179Z,29.33
2022-09-30T20:47:13.405Z,29.10
2022-09-30T20:52:17.155Z,31.77
2022-09-30T20:57:21.164Z,31.07
2022-09-30T21:02:29.599Z,29.80
2022-09-30T21:07:36.437Z,40.80
2022-09-30T21:12:39.875Z,46.07
2022-09-30T21:17:45.449Z,42.50
2022-09-30T21:22:49.444Z,44.60
2022-09-30T21:27:53.359Z,29.57
2022-09-30T21:32:57.116Z,31.83
2022-09-30T21:38:00.336Z,32.23
2022-09-30T21:43:04.266Z,27.60
2022-09-30T21:48:12.381Z,30.00
2022-09-30T21:53:15.527Z,29.87
2022-09-30T21:58:18.956Z,30.17
2022-09-30T22:03:23.665Z,35.13
2022-09-30T22:08:26.916Z,32.03
2022-09-30T22:13:30.138Z,35.97
2022-09-30T22:18:34.706Z,33.60
2022-09-30T22:23:38.785Z,34.13
2022-09-30T22:28:42.616Z,28.27
2022-09-30T22:34:06.235Z,35.90
2022-09-30T22:39:11.485Z,39.17
2022-09-30T22:44:17.231Z,36.33
2022-09-30T22:49:20.886Z,32.30
2022-09-30T22:54:25.815Z,30.73
2022-09-30T22:59:31.116Z,33.80
2022-09-30T23:04:34.462Z,30.93
2022-09-30T23:09:37.597Z,29.03
2022-09-30T23:14:40.844Z,31.33
2022-09-30T23:19:44.019Z,32.97
2022-09-30T23:24:47.193Z,39.27
2022-09-30T23:29:50.360Z,41.53
2022-09-30T23:34:54.856Z,38.27
2022-09-30T23:39:57.985Z,37.90
2022-09-30T23:45:01.532Z,38.43
2022-09-30T23:50:05.037Z,35.73
2022-09-30T23:55:08.804Z,38.67
